アトランタ の空港の天気 - METARとTAF

ハーツフィールド・ジャクソン・アトランタ国際空港 ( KATL / ATL ) - アメリカ合衆国 ジョージア州アトランタ
飛行場実況気象(Metar)
観測時間02/20 09:52 EST (02/20 14:52 UTC)
風向・風速東南東 4m/s
視程10km以上
天気現象
全天の8割程度の雲 雲底高度 7620m
気温16.1℃
湿度58%
気圧1023hPa
METARKATL 201452Z 12007KT 10SM BKN250 16/08 A3022 RMK AO2 SLP230 T01610078 53018
過去の天気等 Google飛行場航空写真 Wunderground天気予報

過去48時間のMETAR

飛行場予報(TAF)
発表時間: 2/20 08:57 EST (2/20 13:57 UTC)
予報対象時間: 20日9時 EST ~ 21日13時 EST
風向・風速東 3m/s
視程10km以上
全天の8割程度の雲 雲底高度 7,620m
20日10時 EST から
風向・風速東 3m/s
視程10km以上
少しの雲 雲底高度 1,070m
全天の8割程度の雲 雲底高度 7,620m
20日13時 EST から
風向・風速南東 3m/s
視程10km以上
少しの雲 雲底高度 1,520m
全天の8割程度の雲 雲底高度 7,620m
20日19時 EST から
風向・風速南東 2m/s
視程10km以上
全天の8割程度の雲 雲底高度 7,620m
21日4時 EST から
風向・風速東 2m/s
視程10km以上
全天の4割程度の雲 雲底高度 460m
全天の8割程度の雲 雲底高度 1,220m
21日10時 EST から
風向・風速東南東 4m/s
視程10km以上
全天の8割程度の雲 雲底高度 760m
KATL 201357Z 2014/2118 09005KT P6SM BKN250
FM201500 09006KT P6SM FEW035 BKN250
FM201800 13006KT P6SM FEW050 BKN250
FM210000 13004KT P6SM BKN250
FM210900 10004KT P6SM SCT015 BKN040
FM211500 12007KT P6SM BKN025